logo
App data

Carpe Diem

In this very short kinetic novel, you will play as Jung who's meeting up and hanging out with a girl named Ai. Spend your time wisely.
Store | Hub | SteamDB
Developer: Moonlit Works Publisher: Moonlit Works
Genre: Casual, Free to Play, Indie
Languages: English, Spanish - Spain, Polish, Japanese, German, French, Italian, Portuguese - Brazil, Swedish, Russian, Korean
Tags: Free to Play (265), Anime (222), Visual Novel (196), Short (114), Indie (99), Singleplayer (98), Casual (96), Cute (94), Dating Sim (85), Nudity (61), Sexual Content (54), Psychological Horror (30), 2D (29), Story Rich (19), Memes (17), Mature (14), Horror (8), Family Friendly (8), Female Protagonist (5)
Category: Single-player, Steam Achievements, Steam Cloud
Release date: Nov 30, 2015
Free
Old userscore: 89% Owners: 200,000 .. 500,000
Followers: 10,908
Peak concurrent players yesterday: 3
YouTube stats: 156 views and 10 comments for top 50 videos uploaded last week, 1 new videos uploaded yesterday.
Playtime total: 00:16 (average) 00:13 (median)

Steam Spy is still in beta, so expect major bugs.

Owners data:

Access restricted.

This feature is only available to users with special access rights. Sorry.

If you want to proceed, you need to register or log in first and then back Steam Spy on Patreon. Look for Indie or Pro pledge.

Don't forget to use the same email as on Steam Spy!

Audience in 2 weeks:

Access restricted.

This feature is only available to users with special access rights. Sorry.

If you want to proceed, you need to register or log in first and then back Steam Spy on Patreon. Look for Indie or Pro pledge.

Don't forget to use the same email as on Steam Spy!

Peak daily concurrent players:

CCU data courtesy of SteamDB. Used with permission.

Hourly concurrent players:

Daily Twitch stats:

Hourly Twitch stats:

Followers over time

Access restricted.

This feature is only available to users with special access rights. Sorry.

If you want to proceed, you need to register or log in first and then back Steam Spy on Patreon. Look for Indie or Pro pledge.

Don't forget to use the same email as on Steam Spy!

Views for top 50 videos on YouTube for this game:

Games similar to this one:

# Game Release date
Price
Score rank
(Userscore / Metascore)
Owners
Players
Playtime (Median)
1 Realms of Arkania: Blade of Destiny Jul 29, 2013 $14.99N/A (N/A)50,000 .. 100,0000%00:00 (00:00)
2 Freedom Force May 29, 2009 $4.99N/A (N/A/90%)100,000 .. 200,0000%00:00 (00:00)
3 Anachronox Oct 17, 2013 $6.99N/A (N/A/77%)200,000 .. 500,0000%00:00 (00:00)
4 Freedom Force vs. the Third Reich May 29, 2009 $4.99N/A (N/A)100,000 .. 200,0000%00:00 (00:00)
5 Omikron: The Nomad Soul Sep 26, 2013 $9.99N/A (N/A)100,000 .. 200,0000%00:00 (00:00)
6 Breath of Death VII Jul 13, 2011 $2.99N/A (N/A)500,000 .. 1,000,0000%00:00 (00:00)
7 Wizardry 6: Bane of the Cosmic Forge Sep 10, 2013 $4.99N/A (N/A)50,000 .. 100,0000%00:00 (00:00)
8 Geneforge 2 Jul 1, 2003 $19.99N/A (N/A)50,000 .. 100,0000%00:00 (00:00)
9 Wizardry 7: Crusaders of the Dark Savant Sep 10, 2013 $4.99N/A (N/A)50,000 .. 100,0000%00:00 (00:00)
10 Geneforge 3 Apr 1, 2005 $19.99N/A (N/A)50,000 .. 100,0000%00:00 (00:00)
11 Iesabel Oct 11, 2013 $4.99N/A (N/A)200,000 .. 500,0004%00:01 (00:00)
12 Geneforge 5: Overthrow Nov 1, 2008 $19.99N/A (N/A)100,000 .. 200,0000%00:00 (00:00)
13 Heroes of Havoc: Idle Adventures Dec 15, 2016 FreeN/A (N/A)50,000 .. 100,0000%00:00 (00:00)
14 R.A.W. Realms of Ancient War Oct 11, 2012 $14.99N/A (N/A)200,000 .. 500,0000%00:00 (00:00)
15 Gorky 17 Sep 27, 2013 $4.99N/A (N/A)200,000 .. 500,0002.63%02:21 (02:20)
16 ROSE Online Oct 23, 2012 N/AN/A (N/A)200,000 .. 500,0000%00:00 (00:00)
17 KnightShift Sep 27, 2013 $6.99N/A (N/A)500,000 .. 1,000,0001.79%03:47 (02:31)
18 Dofus Nov 15, 2016 N/AN/A (N/A/72%)100,000 .. 200,0000%00:00 (00:00)
19 Floating Point Jun 6, 2014 N/AN/A (N/A)500,000 .. 1,000,0000%00:00 (00:00)
20 Max Gentlemen Aug 21, 2014 FreeN/A (N/A)100,000 .. 200,0000%00:00 (00:00)
21 Trapped Dead: Lockdown Mar 20, 2015 $9.99N/A (N/A)50,000 .. 100,0000%00:00 (00:00)
22 Two Brothers Dec 3, 2013 N/AN/A (N/A/57%)50,000 .. 100,0000%00:00 (00:00)
23 Data Hacker: Initiation Jul 21, 2014 $2.99N/A (N/A)500,000 .. 1,000,0001.37%00:01 (00:00)
24 Anarchy Arcade Sep 3, 2014 FreeN/A (N/A)500,000 .. 1,000,0000%00:00 (00:00)
25 Battlegrounds of Eldhelm Oct 22, 2014 N/AN/A (N/A)50,000 .. 100,0000%00:00 (00:00)
26 Arcane Worlds Jan 28, 2014 $9.99N/A (N/A)20,000 .. 50,0000%00:00 (00:00)
27 Among Ripples Jan 22, 2015 FreeN/A (N/A)200,000 .. 500,0000%00:00 (00:00)
28 Colonies Online May 1, 2014 $14.99N/A (N/A)0 .. 20,0000%00:00 (00:00)
29 Firefly Online Cortex Jan 29, 2015 FreeN/A (N/A)100,000 .. 200,0000%00:00 (00:00)
30 Soulbringer Mar 13, 2014 $2.99N/A (N/A/70%)50,000 .. 100,0000%00:00 (00:00)
31 Without Within Jan 22, 2015 FreeN/A (N/A)200,000 .. 500,0000%00:00 (00:00)
32 ACE - Arena: Cyber Evolution Aug 18, 2014 N/AN/A (N/A)200,000 .. 500,0000%00:00 (00:00)
33 Red Stone Online Apr 2015 N/AN/A (N/A)100,000 .. 200,0000%00:00 (00:00)
34 A.I.M.2 Clan Wars May 22, 2014 $2.99N/A (N/A)50,000 .. 100,0000%00:00 (00:00)
35 how do you Do It? Feb 27, 2015 FreeN/A (N/A)200,000 .. 500,0000%00:00 (00:00)
36 Asdivine Hearts Feb 1, 2016 $9.99N/A (N/A)0 .. 20,0000%00:00 (00:00)
37 Force of Elements Dec 29, 2015 FreeN/A (N/A)20,000 .. 50,0000%00:00 (00:00)
38 Gods and Idols Dec 12, 2016 FreeN/A (N/A)100,000 .. 200,0000%00:00 (00:00)
39 Bitweb Jun 3, 2015 FreeN/A (N/A)50,000 .. 100,0000%00:00 (00:00)
40 SOLRAVEN Mar 3, 2016 FreeN/A (N/A)50,000 .. 100,0000%00:00 (00:00)
41 Badland Bandits Jul 16, 2015 FreeN/A (N/A)20,000 .. 50,0000%00:00 (00:00)
42 Fantasy Tales Online May 5, 2016 FreeN/A (N/A)100,000 .. 200,0000%00:00 (00:00)
43 Lamia Must Die Aug 26, 2015 FreeN/A (N/A)50,000 .. 100,0000%00:00 (00:00)
44 The Average Everyday Adventures of Samantha Browne Apr 18, 2016 FreeN/A (N/A)100,000 .. 200,0000%00:00 (00:00)
45 RoShamBo Jul 14, 2016 FreeN/A (N/A)100,000 .. 200,0000%00:00 (00:00)
46 Lost girl`s [diary] Mar 24, 2016 FreeN/A (N/A)50,000 .. 100,0000%00:00 (00:00)
47 Atom Universe Dec 25, 2017 FreeN/A (N/A)100,000 .. 200,0000%00:00 (00:00)
48 Maneki's Curse Oct 25, 2016 FreeN/A (N/A)0 .. 20,0000%00:00 (00:00)
49 Cloney Mar 15, 2014 FreeN/A (N/A)20,000 .. 50,0000%00:00 (00:00)
50 Rock Paper Scissors Champion Mar 2, 2016 FreeN/A (N/A)50,000 .. 100,0000%00:00 (00:00)
51 Legend of Dungeon: Masters Nov 30, 2015 N/AN/A (N/A)100,000 .. 200,0000%00:00 (00:00)
52 Campaign Clicker Oct 3, 2016 FreeN/A (N/A)50,000 .. 100,0000%00:00 (00:00)
53 Soundscape VR Apr 16, 2017 FreeN/A (N/A)20,000 .. 50,0000%00:00 (00:00)
54 Jonah's Path Jul 7, 2016 FreeN/A (N/A)50,000 .. 100,0000%00:00 (00:00)
55 Time Leap Paradise SUPER LIVE! Dec 15, 2016 N/AN/A (N/A)20,000 .. 50,0000%00:00 (00:00)
56 Blocks by Google Jul 6, 2017 FreeN/A (N/A)100,000 .. 200,0000%00:00 (00:00)
57 Racecar.io Oct 18, 2016 FreeN/A (N/A)50,000 .. 100,0000%00:00 (00:00)
58 Drift GEAR Racing Free Nov 16, 2016 FreeN/A (N/A)50,000 .. 100,0000%00:00 (00:00)
59 The Puppet Master Oct 21, 2016 FreeN/A (N/A)20,000 .. 50,0000%00:00 (00:00)
60 Nick Dec 1, 2017 FreeN/A (N/A)50,000 .. 100,0000%00:00 (00:00)
61 Totemori Feb 10, 2017 FreeN/A (N/A)50,000 .. 100,0000%00:00 (00:00)

Geography of active players over time, share:

Access restricted.

This feature is only available to users with special access rights. Sorry.

If you want to proceed, you need to register or log in first and then back Steam Spy on Patreon. Look for Indie or Pro pledge.

Don't forget to use the same email as on Steam Spy!

Tags over time:

Access restricted.

This feature is only available to users with special access rights. Sorry.

If you want to proceed, you need to register or log in first and then back Steam Spy on Patreon. Look for Indie or Pro pledge.

Don't forget to use the same email as on Steam Spy!

Owners of this game also own:

Access restricted.

This feature is only available to users with special access rights. Sorry.

If you want to proceed, you need to register or log in first and then back Steam Spy on Patreon. Look for Indie or Pro pledge.

Don't forget to use the same email as on Steam Spy!

Playtime distribution:

Access restricted.

This feature is only available to users with special access rights. Sorry.

If you want to proceed, you need to register or log in first and then back Steam Spy on Patreon. Look for Indie or Pro pledge.

Don't forget to use the same email as on Steam Spy!

Playtime (2 weeks):

Access restricted.

This feature is only available to users with special access rights. Sorry.

If you want to proceed, you need to register or log in first and then back Steam Spy on Patreon. Look for Indie or Pro pledge.

Don't forget to use the same email as on Steam Spy!

User reviews:

Login required.

Please register or log in to see this information.